createdAt,value
2016-08-13T00:00:05.164Z,18
2016-08-13T00:00:15.167Z,18
2016-08-13T00:00:25.172Z,18
2016-08-13T00:00:35.175Z,18
2016-08-13T00:00:45.182Z,18
2016-08-13T00:00:55.186Z,17.9
2016-08-13T00:01:05.183Z,18
2016-08-13T00:01:15.191Z,17.9
2016-08-13T00:01:25.200Z,18
2016-08-13T00:01:34.461Z,17.9
2016-08-13T00:01:45.200Z,17.9
2016-08-13T00:01:55.193Z,17.9
2016-08-13T00:02:05.193Z,17.9
2016-08-13T00:02:15.199Z,17.9
2016-08-13T00:02:25.203Z,17.9
2016-08-13T00:02:35.203Z,17.9
2016-08-13T00:02:45.207Z,17.9
2016-08-13T00:02:55.214Z,17.9
2016-08-13T00:03:05.214Z,17.9
2016-08-13T00:03:15.217Z,17.9
2016-08-13T00:03:25.219Z,17.9
2016-08-13T00:03:35.226Z,17.9
2016-08-13T00:03:45.241Z,17.9
2016-08-13T00:03:55.232Z,17.9
2016-08-13T00:04:05.236Z,17.9
2016-08-13T00:04:15.237Z,17.9
2016-08-13T00:04:25.245Z,17.9
2016-08-13T00:04:35.248Z,17.9
2016-08-13T00:04:45.259Z,17.9
2016-08-13T00:04:54.528Z,17.9
2016-08-13T00:05:05.260Z,17.9
2016-08-13T00:05:15.263Z,17.9
2016-08-13T00:05:25.266Z,17.9
2016-08-13T00:05:34.539Z,17.9
2016-08-13T00:05:45.271Z,17.9
2016-08-13T00:05:55.276Z,17.9
2016-08-13T00:06:05.279Z,17.9
2016-08-13T00:06:15.288Z,17.9
2016-08-13T00:06:25.286Z,17.9
2016-08-13T00:06:35.288Z,17.9
2016-08-13T00:06:45.296Z,17.9
2016-08-13T00:06:55.295Z,17.9
2016-08-13T00:07:05.303Z,17.9
2016-08-13T00:07:15.304Z,17.9
2016-08-13T00:07:25.315Z,17.9
2016-08-13T00:07:35.312Z,17.9
2016-08-13T00:07:45.314Z,17.9
2016-08-13T00:07:55.318Z,17.9
2016-08-13T00:08:05.322Z,17.9
2016-08-13T00:08:15.329Z,17.9
2016-08-13T00:08:25.331Z,17.9
2016-08-13T00:08:35.332Z,17.9
2016-08-13T00:08:45.336Z,17.9
2016-08-13T00:08:55.343Z,17.9
2016-08-13T00:09:05.344Z,17.9
2016-08-13T00:09:15.346Z,17.9
2016-08-13T00:09:25.351Z,17.9
2016-08-13T00:09:35.354Z,17.9
2016-08-13T00:09:44.624Z,17.9
2016-08-13T00:09:54.631Z,17.9
2016-08-13T00:10:05.365Z,17.9
2016-08-13T00:10:15.368Z,17.9
2016-08-13T00:10:25.369Z,17.9
2016-08-13T00:10:35.376Z,17.9
2016-08-13T00:10:45.385Z,17.9
2016-08-13T00:10:55.382Z,17.9
2016-08-13T00:11:05.385Z,17.9
2016-08-13T00:11:15.389Z,17.9
2016-08-13T00:11:25.402Z,17.9
2016-08-13T00:11:35.395Z,17.9
2016-08-13T00:11:45.407Z,17.9
2016-08-13T00:11:55.406Z,17.9
2016-08-13T00:12:05.410Z,17.9
2016-08-13T00:12:15.410Z,17.9
2016-08-13T00:12:25.415Z,17.9
2016-08-13T00:12:35.419Z,17.9
2016-08-13T00:12:44.685Z,17.9
2016-08-13T00:12:55.425Z,17.9
2016-08-13T00:13:05.427Z,17.9
2016-08-13T00:13:15.435Z,17.9
2016-08-13T00:13:25.435Z,17.9
2016-08-13T00:13:34.708Z,17.9
2016-08-13T00:13:45.447Z,17.9
2016-08-13T00:13:55.449Z,17.9
2016-08-13T00:14:05.453Z,17.9
2016-08-13T00:14:15.455Z,17.8
2016-08-13T00:14:25.458Z,17.9
2016-08-13T00:14:34.729Z,17.8
2016-08-13T00:14:45.465Z,17.8
2016-08-13T00:14:55.466Z,17.8
2016-08-13T00:15:05.474Z,17.8
2016-08-13T00:15:15.475Z,17.8
2016-08-13T00:15:25.477Z,17.8
2016-08-13T00:15:35.483Z,17.8
2016-08-13T00:15:45.490Z,17.8
2016-08-13T00:15:55.487Z,17.8
2016-08-13T00:16:05.499Z,17.8
2016-08-13T00:16:15.495Z,17.8
2016-08-13T00:16:25.502Z,17.8
2016-08-13T00:16:35.503Z,17.8
2016-08-13T00:16:45.506Z,17.8
2016-08-13T00:16:55.516Z,17.8
2016-08-13T00:17:05.518Z,17.8
2016-08-13T00:17:15.521Z,17.8
2016-08-13T00:17:25.521Z,17.8
2016-08-13T00:17:35.553Z,17.8
2016-08-13T00:17:45.532Z,17.8
2016-08-13T00:17:54.797Z,17.8
2016-08-13T00:18:05.545Z,17.8
2016-08-13T00:18:15.539Z,17.8
2016-08-13T00:18:25.542Z,17.8
2016-08-13T00:18:35.551Z,17.8
2016-08-13T00:18:45.553Z,17.8
2016-08-13T00:18:55.553Z,17.8
2016-08-13T00:19:05.559Z,17.8
2016-08-13T00:19:15.562Z,17.8
2016-08-13T00:19:25.562Z,17.8
2016-08-13T00:19:35.574Z,17.8
2016-08-13T00:19:45.571Z,17.8
2016-08-13T00:19:55.575Z,17.8
2016-08-13T00:20:05.578Z,17.8
2016-08-13T00:20:15.586Z,17.8
2016-08-13T00:20:25.590Z,17.8
2016-08-13T00:20:35.588Z,17.8
2016-08-13T00:20:45.596Z,17.8
2016-08-13T00:20:55.598Z,17.8
2016-08-13T00:21:05.601Z,17.8
2016-08-13T00:21:15.603Z,17.8
2016-08-13T00:21:25.605Z,17.8
2016-08-13T00:21:34.881Z,17.8
2016-08-13T00:21:45.613Z,17.8
2016-08-13T00:21:55.622Z,17.8
2016-08-13T00:22:05.621Z,17.8
2016-08-13T00:22:15.629Z,17.8
2016-08-13T00:22:25.648Z,17.8
2016-08-13T00:22:35.637Z,17.8
2016-08-13T00:22:45.637Z,17.8
2016-08-13T00:22:55.639Z,17.8
2016-08-13T00:23:05.644Z,17.8
2016-08-13T00:23:15.646Z,17.8
2016-08-13T00:23:25.648Z,17.8
2016-08-13T00:23:35.658Z,17.8
2016-08-13T00:23:45.656Z,17.8
2016-08-13T00:23:54.936Z,17.8
2016-08-13T00:24:05.673Z,17.8
2016-08-13T00:24:15.670Z,17.8
2016-08-13T00:24:25.671Z,17.8
2016-08-13T00:24:35.674Z,17.8
2016-08-13T00:24:45.678Z,17.8
2016-08-13T00:24:55.683Z,17.8
2016-08-13T00:25:05.686Z,17.8
2016-08-13T00:25:15.687Z,17.8
2016-08-13T00:25:24.963Z,17.8
2016-08-13T00:25:35.698Z,17.8
2016-08-13T00:25:44.970Z,17.8
2016-08-13T00:25:55.708Z,17.8
2016-08-13T00:26:05.710Z,17.8
2016-08-13T00:26:15.710Z,17.8
2016-08-13T00:26:25.712Z,17.8
2016-08-13T00:26:35.724Z,17.8
2016-08-13T00:26:45.721Z,17.8
2016-08-13T00:26:55.724Z,17.8
2016-08-13T00:27:05.730Z,17.8
2016-08-13T00:27:15.738Z,17.8
2016-08-13T00:27:25.739Z,17.8
2016-08-13T00:27:35.742Z,17.8
2016-08-13T00:27:45.742Z,17.8
2016-08-13T00:27:55.745Z,17.8
2016-08-13T00:28:05.023Z,17.8
2016-08-13T00:28:15.751Z,17.8
2016-08-13T00:28:25.075Z,17.8
2016-08-13T00:28:35.759Z,17.8
2016-08-13T00:28:45.762Z,17.8
2016-08-13T00:28:55.766Z,17.8
2016-08-13T00:29:05.770Z,17.8
2016-08-13T00:29:15.779Z,17.8
2016-08-13T00:29:25.783Z,17.8
2016-08-13T00:29:35.052Z,17.8
2016-08-13T00:29:45.787Z,17.8
2016-08-13T00:29:55.793Z,17.8
2016-08-13T00:30:05.793Z,17.9
2016-08-13T00:30:15.795Z,17.8
2016-08-13T00:30:25.802Z,17.9
2016-08-13T00:30:35.802Z,17.9
2016-08-13T00:30:45.806Z,17.9
2016-08-13T00:30:55.810Z,17.9
2016-08-13T00:31:05.821Z,17.9
2016-08-13T00:31:15.816Z,17.9
2016-08-13T00:31:25.820Z,17.9
2016-08-13T00:31:35.823Z,17.9
2016-08-13T00:31:45.847Z,17.9
2016-08-13T00:31:55.833Z,17.9
2016-08-13T00:32:05.835Z,17.9
2016-08-13T00:32:15.850Z,17.9
2016-08-13T00:32:25.846Z,17.9
2016-08-13T00:32:35.847Z,17.9
2016-08-13T00:32:45.847Z,17.9
2016-08-13T00:32:55.856Z,17.9
2016-08-13T00:33:05.857Z,17.9
2016-08-13T00:33:15.859Z,17.9
2016-08-13T00:33:25.866Z,17.9
2016-08-13T00:33:35.867Z,17.9
2016-08-13T00:33:45.871Z,17.9
2016-08-13T00:33:55.876Z,17.8
2016-08-13T00:34:05.150Z,17.8
2016-08-13T00:34:15.883Z,17.9
2016-08-13T00:34:25.888Z,17.9
2016-08-13T00:34:35.891Z,17.8
2016-08-13T00:34:45.890Z,17.8
2016-08-13T00:34:55.895Z,17.8
2016-08-13T00:35:05.898Z,17.8
2016-08-13T00:35:15.902Z,17.8
2016-08-13T00:35:25.174Z,17.8
2016-08-13T00:35:35.909Z,17.8
2016-08-13T00:35:45.914Z,17.8
2016-08-13T00:35:55.923Z,17.8
2016-08-13T00:36:05.922Z,17.8
2016-08-13T00:36:15.931Z,17.8
2016-08-13T00:36:25.925Z,17.8
2016-08-13T00:36:35.931Z,17.8
2016-08-13T00:36:45.200Z,17.8
2016-08-13T00:36:55.938Z,17.8
2016-08-13T00:37:05.210Z,17.8
2016-08-13T00:37:15.945Z,17.8
2016-08-13T00:37:25.948Z,17.8
2016-08-13T00:37:35.952Z,17.8
2016-08-13T00:37:45.224Z,17.8
2016-08-13T00:37:55.959Z,17.8
2016-08-13T00:38:05.968Z,17.8
2016-08-13T00:38:15.968Z,17.8
2016-08-13T00:38:25.968Z,17.8
2016-08-13T00:38:35.249Z,17.8
2016-08-13T00:38:45.977Z,17.8
2016-08-13T00:38:55.981Z,17.8
2016-08-13T00:39:05.984Z,17.8
2016-08-13T00:39:15.987Z,17.8
2016-08-13T00:39:25.990Z,17.8
2016-08-13T00:39:35.998Z,17.8
2016-08-13T00:39:45.997Z,17.8
2016-08-13T00:39:55.272Z,17.8
2016-08-13T00:40:06.012Z,17.8
2016-08-13T00:40:16.024Z,17.8
2016-08-13T00:40:26.009Z,17.8
2016-08-13T00:40:36.017Z,17.8
2016-08-13T00:40:46.025Z,17.7
2016-08-13T00:40:55.295Z,17.8
2016-08-13T00:41:06.029Z,17.7
2016-08-13T00:41:16.034Z,17.7
2016-08-13T00:41:26.044Z,17.7
2016-08-13T00:41:35.316Z,17.7
2016-08-13T00:41:46.045Z,17.7
2016-08-13T00:41:56.058Z,17.7
2016-08-13T00:42:06.055Z,17.7
2016-08-13T00:42:16.059Z,17.7
2016-08-13T00:42:25.328Z,17.7
2016-08-13T00:42:36.071Z,17.7
2016-08-13T00:42:46.066Z,17.7
2016-08-13T00:42:56.074Z,17.7
2016-08-13T00:43:06.079Z,17.7
2016-08-13T00:43:16.089Z,17.7
2016-08-13T00:43:26.104Z,17.7
2016-08-13T00:43:35.363Z,17.7
2016-08-13T00:43:46.102Z,17.7
2016-08-13T00:43:56.100Z,17.7
2016-08-13T00:44:06.108Z,17.7
2016-08-13T00:44:16.111Z,17.7
2016-08-13T00:44:26.108Z,17.7
2016-08-13T00:44:36.117Z,17.7
2016-08-13T00:44:46.126Z,17.7
2016-08-13T00:44:56.120Z,17.7
2016-08-13T00:45:06.123Z,17.7
2016-08-13T00:45:16.139Z,17.7
2016-08-13T00:45:26.133Z,17.7
2016-08-13T00:45:36.146Z,17.7
2016-08-13T00:45:45.405Z,17.7
2016-08-13T00:45:56.141Z,17.7
2016-08-13T00:46:06.146Z,17.7
2016-08-13T00:46:16.150Z,17.7
2016-08-13T00:46:26.151Z,17.7
2016-08-13T00:46:36.154Z,17.7
2016-08-13T00:46:46.158Z,17.7
2016-08-13T00:46:56.165Z,17.7
2016-08-13T00:47:06.187Z,17.7
2016-08-13T00:47:16.171Z,17.7
2016-08-13T00:47:26.161Z,17.6
2016-08-13T00:47:36.165Z,17.6
2016-08-13T00:47:46.167Z,17.6
2016-08-13T00:47:56.171Z,17.6
2016-08-13T00:48:06.178Z,17.6
2016-08-13T00:48:16.178Z,17.6
2016-08-13T00:48:26.186Z,17.6
2016-08-13T00:48:36.186Z,17.6
2016-08-13T00:48:46.191Z,17.6
2016-08-13T00:48:56.193Z,17.6
2016-08-13T00:49:06.197Z,17.6
2016-08-13T00:49:16.203Z,17.6
2016-08-13T00:49:26.206Z,17.6
2016-08-13T00:49:36.209Z,17.7
2016-08-13T00:49:46.213Z,17.6
2016-08-13T00:49:56.201Z,17.6
2016-08-13T00:50:06.218Z,17.6
2016-08-13T00:50:16.201Z,17.6
2016-08-13T00:50:26.211Z,17.6
2016-08-13T00:50:36.203Z,17.6
2016-08-13T00:50:46.207Z,17.6
2016-08-13T00:50:56.225Z,17.6
2016-08-13T00:51:05.494Z,17.6
2016-08-13T00:51:16.228Z,17.6
2016-08-13T00:51:26.232Z,17.6
2016-08-13T00:51:36.227Z,17.6
2016-08-13T00:51:46.233Z,17.6
2016-08-13T00:51:56.222Z,17.6
2016-08-13T00:52:06.249Z,17.6
2016-08-13T00:52:16.244Z,17.6
2016-08-13T00:52:26.242Z,17.6
2016-08-13T00:52:36.249Z,17.6
2016-08-13T00:52:46.253Z,17.6
2016-08-13T00:52:56.259Z,17.6
2016-08-13T00:53:06.288Z,17.6
2016-08-13T00:53:16.298Z,17.6
2016-08-13T00:53:26.289Z,17.6
2016-08-13T00:53:36.292Z,17.6
2016-08-13T00:53:46.299Z,17.6
2016-08-13T00:53:56.307Z,17.6
2016-08-13T00:54:05.571Z,17.6
2016-08-13T00:54:16.307Z,17.6
2016-08-13T00:54:26.310Z,17.6
2016-08-13T00:54:36.314Z,17.6
2016-08-13T00:54:46.319Z,17.6
2016-08-13T00:54:56.320Z,17.6
2016-08-13T00:55:06.323Z,17.6
2016-08-13T00:55:16.329Z,17.6
2016-08-13T00:55:25.602Z,17.6
2016-08-13T00:55:36.336Z,17.6
2016-08-13T00:55:46.348Z,17.6
2016-08-13T00:55:56.342Z,17.6
2016-08-13T00:56:06.346Z,17.6
2016-08-13T00:56:16.355Z,17.6
2016-08-13T00:56:26.355Z,17.6
2016-08-13T00:56:36.356Z,17.6
2016-08-13T00:56:46.362Z,17.6
2016-08-13T00:56:56.363Z,17.6
2016-08-13T00:57:06.366Z,17.6
2016-08-13T00:57:16.370Z,17.6
2016-08-13T00:57:26.373Z,17.6
2016-08-13T00:57:36.376Z,17.6
2016-08-13T00:57:46.382Z,17.6
2016-08-13T00:57:56.387Z,17.6
2016-08-13T00:58:06.388Z,17.6
2016-08-13T00:58:16.396Z,17.6
2016-08-13T00:58:26.396Z,17.6
2016-08-13T00:58:36.396Z,17.6
2016-08-13T00:58:46.401Z,17.6
2016-08-13T00:58:56.404Z,17.6
2016-08-13T00:59:06.410Z,17.6
2016-08-13T00:59:16.413Z,17.6
2016-08-13T00:59:26.416Z,17.6
2016-08-13T00:59:36.420Z,17.6
2016-08-13T00:59:46.423Z,17.6
2016-08-13T00:59:56.426Z,17.6
2016-08-13T01:00:06.437Z,17.6
2016-08-13T01:00:16.435Z,17.6
2016-08-13T01:00:26.442Z,17.6
2016-08-13T01:00:36.440Z,17.6
2016-08-13T01:00:46.450Z,17.6
2016-08-13T01:00:56.447Z,17.6
2016-08-13T01:01:06.451Z,17.6
2016-08-13T01:01:16.456Z,17.6
2016-08-13T01:01:25.728Z,17.6
2016-08-13T01:01:36.469Z,17.6
2016-08-13T01:01:46.466Z,17.6
2016-08-13T01:01:56.468Z,17.6
2016-08-13T01:02:06.474Z,17.6
2016-08-13T01:02:16.481Z,17.6
2016-08-13T01:02:26.478Z,17.5
2016-08-13T01:02:36.481Z,17.6
2016-08-13T01:02:46.485Z,17.5
2016-08-13T01:02:56.491Z,17.6
2016-08-13T01:03:06.492Z,17.5
2016-08-13T01:03:16.497Z,17.5
2016-08-13T01:03:26.502Z,17.5
2016-08-13T01:03:36.512Z,17.5
2016-08-13T01:03:46.506Z,17.5
2016-08-13T01:03:55.785Z,17.5
2016-08-13T01:04:06.515Z,17.5
2016-08-13T01:04:16.518Z,17.5
2016-08-13T01:04:26.534Z,17.5
2016-08-13T01:04:36.529Z,17.5
2016-08-13T01:04:46.533Z,17.5
2016-08-13T01:04:56.532Z,17.5
2016-08-13T01:05:06.537Z,17.5
2016-08-13T01:05:16.539Z,17.5
2016-08-13T01:05:26.544Z,17.5
2016-08-13T01:05:36.546Z,17.5
2016-08-13T01:05:46.550Z,17.5
2016-08-13T01:05:56.554Z,17.5
2016-08-13T01:06:06.558Z,17.5
2016-08-13T01:06:16.560Z,17.5
2016-08-13T01:06:26.564Z,17.5
2016-08-13T01:06:36.570Z,17.5
2016-08-13T01:06:46.573Z,17.5
2016-08-13T01:06:56.578Z,17.5
2016-08-13T01:07:06.585Z,17.5
2016-08-13T01:07:16.586Z,17.5
2016-08-13T01:07:26.584Z,17.5
2016-08-13T01:07:36.592Z,17.5
2016-08-13T01:07:46.592Z,17.5
2016-08-13T01:07:56.594Z,17.5
2016-08-13T01:08:06.598Z,17.5
2016-08-13T01:08:16.603Z,17.5
2016-08-13T01:08:26.605Z,17.5
2016-08-13T01:08:36.610Z,17.5
2016-08-13T01:08:46.616Z,17.5
2016-08-13T01:08:56.619Z,17.5
2016-08-13T01:09:06.619Z,17.5
2016-08-13T01:09:15.888Z,17.5
2016-08-13T01:09:26.627Z,17.5
2016-08-13T01:09:36.629Z,17.5
2016-08-13T01:09:46.635Z,17.5
2016-08-13T01:09:56.638Z,17.5
2016-08-13T01:10:06.639Z,17.5
2016-08-13T01:10:16.646Z,17.5
2016-08-13T01:10:26.648Z,17.5
2016-08-13T01:10:35.924Z,17.5
2016-08-13T01:10:46.656Z,17.5
2016-08-13T01:10:56.661Z,17.5
2016-08-13T01:11:06.662Z,17.5
2016-08-13T01:11:16.667Z,17.5
2016-08-13T01:11:25.935Z,17.5
2016-08-13T01:11:36.677Z,17.4
2016-08-13T01:11:46.681Z,17.4
2016-08-13T01:11:56.684Z,17.4
2016-08-13T01:12:05.952Z,17.4
2016-08-13T01:12:16.688Z,17.4
2016-08-13T01:12:26.698Z,17.4
2016-08-13T01:12:36.694Z,17.4
2016-08-13T01:12:46.700Z,17.4
2016-08-13T01:12:56.701Z,17.4
2016-08-13T01:13:06.703Z,17.4
2016-08-13T01:13:16.708Z,17.4
2016-08-13T01:13:26.715Z,17.4
2016-08-13T01:13:36.721Z,17.4
2016-08-13T01:13:46.718Z,17.4
2016-08-13T01:13:55.994Z,17.4
2016-08-13T01:14:06.726Z,17.4
2016-08-13T01:14:16.729Z,17.4
2016-08-13T01:14:26.734Z,17.4
2016-08-13T01:14:36.738Z,17.4
2016-08-13T01:14:46.009Z,17.4
2016-08-13T01:14:56.022Z,17.4
2016-08-13T01:15:06.746Z,17.4
2016-08-13T01:15:16.754Z,17.4
2016-08-13T01:15:26.757Z,17.4
2016-08-13T01:15:36.766Z,17.4
2016-08-13T01:15:46.760Z,17.4
2016-08-13T01:15:56.040Z,17.4
2016-08-13T01:16:06.771Z,17.4
2016-08-13T01:16:16.773Z,17.4
2016-08-13T01:16:26.787Z,17.4
2016-08-13T01:16:36.780Z,17.4
2016-08-13T01:16:46.071Z,17.4
2016-08-13T01:16:56.787Z,17.4
2016-08-13T01:17:06.061Z,17.4
2016-08-13T01:17:16.793Z,17.4
2016-08-13T01:17:26.803Z,17.4
2016-08-13T01:17:36.802Z,17.4
2016-08-13T01:17:46.805Z,17.4
2016-08-13T01:17:56.807Z,17.4
2016-08-13T01:18:06.813Z,17.4
2016-08-13T01:18:16.084Z,17.4
2016-08-13T01:18:26.092Z,17.4
2016-08-13T01:18:36.823Z,17.4
2016-08-13T01:18:46.837Z,17.4
2016-08-13T01:18:56.834Z,17.4
2016-08-13T01:19:06.833Z,17.4
2016-08-13T01:19:16.840Z,17.4
2016-08-13T01:19:26.838Z,17.4
2016-08-13T01:19:36.841Z,17.4
2016-08-13T01:19:46.851Z,17.4
2016-08-13T01:19:56.853Z,17.4
2016-08-13T01:20:06.856Z,17.4
2016-08-13T01:20:16.126Z,17.4
2016-08-13T01:20:26.860Z,17.4
2016-08-13T01:20:36.868Z,17.4
2016-08-13T01:20:46.867Z,17.3
2016-08-13T01:20:56.869Z,17.4
2016-08-13T01:21:06.880Z,17.4
2016-08-13T01:21:16.162Z,17.4
2016-08-13T01:21:26.882Z,17.4
2016-08-13T01:21:36.887Z,17.4
2016-08-13T01:21:46.893Z,17.3
2016-08-13T01:21:55.428Z,17.3
2016-08-13T01:22:06.899Z,17.3
2016-08-13T01:22:16.897Z,17.3
2016-08-13T01:22:26.901Z,17.3
2016-08-13T01:22:36.170Z,17.3
2016-08-13T01:22:46.910Z,17.3
2016-08-13T01:22:56.911Z,17.3
2016-08-13T01:23:06.918Z,17.3
2016-08-13T01:23:16.922Z,17.3
2016-08-13T01:23:26.923Z,17.3
2016-08-13T01:23:36.927Z,17.3
2016-08-13T01:23:46.930Z,17.3
2016-08-13T01:23:56.942Z,17.3
2016-08-13T01:24:06.937Z,17.3
2016-08-13T01:24:16.943Z,17.3
2016-08-13T01:24:26.947Z,17.3
2016-08-13T01:24:36.219Z,17.3
2016-08-13T01:24:46.952Z,17.3
2016-08-13T01:24:56.235Z,17.3
2016-08-13T01:25:06.963Z,17.3
2016-08-13T01:25:16.985Z,17.3
2016-08-13T01:25:26.965Z,17.3
2016-08-13T01:25:36.970Z,17.3
2016-08-13T01:25:46.972Z,17.3
2016-08-13T01:25:56.250Z,17.3
2016-08-13T01:26:06.981Z,17.3
2016-08-13T01:26:17.185Z,17.3
2016-08-13T01:26:26.990Z,17.3
2016-08-13T01:26:36.992Z,17.3
2016-08-13T01:26:46.993Z,17.3
2016-08-13T01:26:56.267Z,17.3
2016-08-13T01:27:07.006Z,17.3
2016-08-13T01:27:17.003Z,17.3
2016-08-13T01:27:27.011Z,17.3
2016-08-13T01:27:37.011Z,17.3
2016-08-13T01:27:47.015Z,17.3
2016-08-13T01:27:57.020Z,17.3
2016-08-13T01:28:07.023Z,17.3
2016-08-13T01:28:17.027Z,17.3
2016-08-13T01:28:27.027Z,17.3
2016-08-13T01:28:37.034Z,17.3
2016-08-13T01:28:46.306Z,17.3
2016-08-13T01:28:57.047Z,17.3
2016-08-13T01:29:07.046Z,17.3
2016-08-13T01:29:16.318Z,17.3
2016-08-13T01:29:27.051Z,17.3
2016-08-13T01:29:37.059Z,17.3
2016-08-13T01:29:47.061Z,17.3
2016-08-13T01:29:57.061Z,17.3
2016-08-13T01:30:07.064Z,17.3
2016-08-13T01:30:17.074Z,17.3
2016-08-13T01:30:27.071Z,17.3
2016-08-13T01:30:37.079Z,17.3
2016-08-13T01:30:47.079Z,17.3
2016-08-13T01:30:57.082Z,17.3
2016-08-13T01:31:07.090Z,17.3
2016-08-13T01:31:16.358Z,17.3
2016-08-13T01:31:27.095Z,17.3
2016-08-13T01:31:37.099Z,17.3
2016-08-13T01:31:47.100Z,17.3
2016-08-13T01:31:57.102Z,17.3
2016-08-13T01:32:07.118Z,17.3
2016-08-13T01:32:17.111Z,17.3
2016-08-13T01:32:27.115Z,17.3
2016-08-13T01:32:37.116Z,17.3
2016-08-13T01:32:47.121Z,17.3
2016-08-13T01:32:57.125Z,17.3
2016-08-13T01:33:07.127Z,17.3
2016-08-13T01:33:16.403Z,17.3
2016-08-13T01:33:27.140Z,17.3
2016-08-13T01:33:37.151Z,17.2
2016-08-13T01:33:47.148Z,17.3
2016-08-13T01:33:57.149Z,17.3
2016-08-13T01:34:07.151Z,17.3
2016-08-13T01:34:17.165Z,17.3
2016-08-13T01:34:27.159Z,17.3
2016-08-13T01:34:37.169Z,17.2
2016-08-13T01:34:47.163Z,17.2
2016-08-13T01:34:56.449Z,17.2
2016-08-13T01:35:07.180Z,17.2
2016-08-13T01:35:17.174Z,17.2
2016-08-13T01:35:27.182Z,17.2
2016-08-13T01:35:37.182Z,17.2
2016-08-13T01:35:47.186Z,17.2
2016-08-13T01:35:57.188Z,17.2
2016-08-13T01:36:07.188Z,17.2
2016-08-13T01:36:17.195Z,17.2
2016-08-13T01:36:27.196Z,17.2
2016-08-13T01:36:37.201Z,17.2
2016-08-13T01:36:46.471Z,17.2
2016-08-13T01:36:57.206Z,17.2
2016-08-13T01:37:06.485Z,17.2
2016-08-13T01:37:16.484Z,17.2
2016-08-13T01:37:27.222Z,17.2
2016-08-13T01:37:35.759Z,17.2
2016-08-13T01:37:47.226Z,17.2
2016-08-13T01:37:57.216Z,17.2
2016-08-13T01:38:07.211Z,17.2
2016-08-13T01:38:17.210Z,17.2
2016-08-13T01:38:27.213Z,17.2
2016-08-13T01:38:37.217Z,17.2
2016-08-13T01:38:47.211Z,17.2
2016-08-13T01:38:57.224Z,17.2
2016-08-13T01:39:07.241Z,17.2
2016-08-13T01:39:17.236Z,17.2
2016-08-13T01:39:27.250Z,17.2
2016-08-13T01:39:37.269Z,17.2
2016-08-13T01:39:47.244Z,17.2
2016-08-13T01:39:57.232Z,17.2
2016-08-13T01:40:06.510Z,17.2
2016-08-13T01:40:17.260Z,17.2
2016-08-13T01:40:27.255Z,17.2
2016-08-13T01:40:37.261Z,17.2
2016-08-13T01:40:47.262Z,17.2
2016-08-13T01:40:57.257Z,17.2
2016-08-13T01:41:06.531Z,17.2
2016-08-13T01:41:17.264Z,17.2
2016-08-13T01:41:27.304Z,17.2
2016-08-13T01:41:36.570Z,17.2
2016-08-13T01:41:47.312Z,17.2
2016-08-13T01:41:57.313Z,17.2
2016-08-13T01:42:07.314Z,17.2
2016-08-13T01:42:17.319Z,17.2
2016-08-13T01:42:27.321Z,17.2
2016-08-13T01:42:37.326Z,17.2
2016-08-13T01:42:47.330Z,17.2
2016-08-13T01:42:57.331Z,17.2
2016-08-13T01:43:07.337Z,17.2
2016-08-13T01:43:17.344Z,17.2
2016-08-13T01:43:27.346Z,17.2
2016-08-13T01:43:37.350Z,17.2
2016-08-13T01:43:47.356Z,17.2
2016-08-13T01:43:56.630Z,17.2
2016-08-13T01:44:07.362Z,17.2
2016-08-13T01:44:17.360Z,17.2
2016-08-13T01:44:27.366Z,17.2
2016-08-13T01:44:37.371Z,17.2
2016-08-13T01:44:47.373Z,17.2
2016-08-13T01:44:57.378Z,17.2
2016-08-13T01:45:07.382Z,17.2
2016-08-13T01:45:17.381Z,17.2
2016-08-13T01:45:27.399Z,17.2
2016-08-13T01:45:37.399Z,17.2
2016-08-13T01:45:47.393Z,17.2
2016-08-13T01:45:57.402Z,17.1
2016-08-13T01:46:07.407Z,17.2
2016-08-13T01:46:16.683Z,17.1
2016-08-13T01:46:27.416Z,17.1
2016-08-13T01:46:37.424Z,17.1
2016-08-13T01:46:47.429Z,17.2
2016-08-13T01:46:57.429Z,17.1
2016-08-13T01:47:07.434Z,17.1
2016-08-13T01:47:17.434Z,17.1
2016-08-13T01:47:27.450Z,17.1
2016-08-13T01:47:37.446Z,17.1
2016-08-13T01:47:47.446Z,17.1
2016-08-13T01:47:57.457Z,17.1
2016-08-13T01:48:07.453Z,17.1
2016-08-13T01:48:17.458Z,17.1
2016-08-13T01:48:27.462Z,17.1
2016-08-13T01:48:37.463Z,17.1
2016-08-13T01:48:47.465Z,17.1
2016-08-13T01:48:57.472Z,17.1
2016-08-13T01:49:07.477Z,17.1
2016-08-13T01:49:17.479Z,17.1
2016-08-13T01:49:27.485Z,17.1
2016-08-13T01:49:37.482Z,17.1
2016-08-13T01:49:47.490Z,17.1
2016-08-13T01:49:57.489Z,17.1
2016-08-13T01:50:07.498Z,17.1
2016-08-13T01:50:17.498Z,17.1
2016-08-13T01:50:27.503Z,17.1
2016-08-13T01:50:37.508Z,17.1
2016-08-13T01:50:47.507Z,17.1
2016-08-13T01:50:57.516Z,17.1
2016-08-13T01:51:07.523Z,17.1
2016-08-13T01:51:17.524Z,17.1
2016-08-13T01:51:27.522Z,17.1
2016-08-13T01:51:37.530Z,17.1
2016-08-13T01:51:47.534Z,17.1
2016-08-13T01:51:57.541Z,17.1
2016-08-13T01:52:07.533Z,17.1
2016-08-13T01:52:17.540Z,17.1
2016-08-13T01:52:27.545Z,17.1
2016-08-13T01:52:37.553Z,17.1
2016-08-13T01:52:47.555Z,17.1
2016-08-13T01:52:57.553Z,17.1
2016-08-13T01:53:07.565Z,17.1
2016-08-13T01:53:17.563Z,17.1
2016-08-13T01:53:27.571Z,17.1
2016-08-13T01:53:37.570Z,17.1
2016-08-13T01:53:47.570Z,17.1
2016-08-13T01:53:57.575Z,17.1
2016-08-13T01:54:07.580Z,17.1
2016-08-13T01:54:17.585Z,17.1
2016-08-13T01:54:27.586Z,17.1
2016-08-13T01:54:37.596Z,17.1
2016-08-13T01:54:47.594Z,17.1
2016-08-13T01:54:57.601Z,17.1
2016-08-13T01:55:07.601Z,17.1
2016-08-13T01:55:17.601Z,17.1
2016-08-13T01:55:26.877Z,17.1
2016-08-13T01:55:37.613Z,17.1
2016-08-13T01:55:47.615Z,17.1
2016-08-13T01:55:57.615Z,17.1
2016-08-13T01:56:07.622Z,17.1
2016-08-13T01:56:17.624Z,17.1
2016-08-13T01:56:26.888Z,17.1
2016-08-13T01:56:37.634Z,17.1
2016-08-13T01:56:47.631Z,17.1
2016-08-13T01:56:57.641Z,17.1
2016-08-13T01:57:07.642Z,17.1
2016-08-13T01:57:17.647Z,17.1
2016-08-13T01:57:27.648Z,17
2016-08-13T01:57:37.658Z,17
2016-08-13T01:57:47.655Z,17
2016-08-13T01:57:57.661Z,17
2016-08-13T01:58:07.664Z,17
2016-08-13T01:58:17.666Z,17
2016-08-13T01:58:27.669Z,17
2016-08-13T01:58:37.674Z,17
2016-08-13T01:58:47.678Z,17
2016-08-13T01:58:57.682Z,17
2016-08-13T01:59:07.685Z,17
2016-08-13T01:59:16.953Z,17
2016-08-13T01:59:27.692Z,17
2016-08-13T01:59:37.692Z,17
2016-08-13T01:59:47.696Z,17
2016-08-13T01:59:56.972Z,17
2016-08-13T02:00:07.711Z,17
2016-08-13T02:00:17.710Z,17
2016-08-13T02:00:27.711Z,17
2016-08-13T02:00:37.716Z,17
2016-08-13T02:00:47.720Z,17
2016-08-13T02:00:56.259Z,17
2016-08-13T02:01:07.772Z,17
2016-08-13T02:01:17.730Z,17
2016-08-13T02:01:27.734Z,17
2016-08-13T02:01:37.736Z,17
2016-08-13T02:01:47.742Z,17
2016-08-13T02:01:57.745Z,17
2016-08-13T02:02:07.007Z,17
2016-08-13T02:02:17.753Z,17
2016-08-13T02:02:27.755Z,17
2016-08-13T02:02:37.756Z,17
2016-08-13T02:02:47.766Z,17
2016-08-13T02:02:57.763Z,17
2016-08-13T02:03:07.774Z,17
2016-08-13T02:03:17.770Z,17
2016-08-13T02:03:27.773Z,17
2016-08-13T02:03:37.056Z,17
2016-08-13T02:03:47.783Z,17
2016-08-13T02:03:57.786Z,17
2016-08-13T02:04:07.788Z,17
2016-08-13T02:04:17.795Z,17
2016-08-13T02:04:27.794Z,17
2016-08-13T02:04:37.801Z,17
2016-08-13T02:04:47.065Z,17
2016-08-13T02:04:57.801Z,17
2016-08-13T02:05:07.810Z,17
2016-08-13T02:05:17.814Z,17
2016-08-13T02:05:27.818Z,17
2016-08-13T02:05:37.819Z,17
2016-08-13T02:05:47.826Z,17
2016-08-13T02:05:57.828Z,17
2016-08-13T02:06:07.830Z,17
2016-08-13T02:06:17.833Z,17
2016-08-13T02:06:27.834Z,17
2016-08-13T02:06:37.839Z,17
2016-08-13T02:06:47.844Z,17
2016-08-13T02:06:57.848Z,17
2016-08-13T02:07:07.850Z,17
2016-08-13T02:07:17.856Z,17
2016-08-13T02:07:27.857Z,17
2016-08-13T02:07:37.863Z,17
2016-08-13T02:07:47.860Z,16.9
2016-08-13T02:07:57.866Z,16.9
2016-08-13T02:08:07.869Z,16.9
2016-08-13T02:08:17.875Z,16.9
2016-08-13T02:08:27.877Z,16.9
2016-08-13T02:08:37.883Z,17
2016-08-13T02:08:47.891Z,16.9
2016-08-13T02:08:57.886Z,16.9
2016-08-13T02:09:07.892Z,16.9
2016-08-13T02:09:17.894Z,16.9
2016-08-13T02:09:27.901Z,16.9
2016-08-13T02:09:37.906Z,16.9
2016-08-13T02:09:47.908Z,16.9
2016-08-13T02:09:57.911Z,16.9
2016-08-13T02:10:07.914Z,16.9
2016-08-13T02:10:17.916Z,16.9
2016-08-13T02:10:27.920Z,16.9
2016-08-13T02:10:37.934Z,16.9
2016-08-13T02:10:47.926Z,16.9
2016-08-13T02:10:57.930Z,16.9
2016-08-13T02:11:07.934Z,16.9
2016-08-13T02:11:17.938Z,16.9
2016-08-13T02:11:27.202Z,16.9
2016-08-13T02:11:37.946Z,16.9
2016-08-13T02:11:47.949Z,16.9
2016-08-13T02:11:57.949Z,16.9
2016-08-13T02:12:07.960Z,16.9
2016-08-13T02:12:17.958Z,16.9
2016-08-13T02:12:27.961Z,16.9
2016-08-13T02:12:37.964Z,16.9
2016-08-13T02:12:47.965Z,16.9
2016-08-13T02:12:57.236Z,16.9
2016-08-13T02:13:07.979Z,16.9
2016-08-13T02:13:17.983Z,16.9
2016-08-13T02:13:27.987Z,16.9
2016-08-13T02:13:37.987Z,16.9
2016-08-13T02:13:47.984Z,16.9
2016-08-13T02:13:57.258Z,16.9